Have a Safe July 4th! 

Flight Track Log - Related Links

Times and Time Zones

All times are in EDT time to prevent confusion due to time zone crossing. See the CSN6338 flight status page for this flight to view local times or setup timezone preferences in your user account.

Time Position Orientation Groundspeed Altitude Reporting Facility
EDT Latitude Longitude Course Direction KTS MPH feet Rate Location/Type
Fri 02:42:00 AM 20.0303 110.5197 31° Northeast  Level Estimated
Fri 02:43:00 AM 20.1256 110.5806 31° Northeast  Level Estimated
Fri 02:44:00 AM 20.2210 110.6415 31° Northeast  Level Estimated
Fri 02:45:00 AM 20.3164 110.7024 31° Northeast  Level Estimated
Fri 02:46:00 AM 20.4117 110.7635 31° Northeast  Level Estimated
Fri 02:47:00 AM 20.5070 110.8246 31° Northeast  Level Estimated
Fri 02:48:00 AM 20.6022 110.8858 31° Northeast  Level Estimated
Fri 02:49:00 AM 20.6975 110.9471 31° Northeast  Level Estimated
Fri 02:50:00 AM 20.7927 111.0085 31° Northeast  Level Estimated
Fri 02:51:00 AM 20.8880 111.0699 31° Northeast  Level Estimated
Fri 02:52:00 AM 20.9831 111.1314 31° Northeast  Level Estimated
Fri 02:53:00 AM 21.0783 111.1930 31° Northeast  Level Estimated
Fri 02:54:00 AM 21.1735 111.2547 31° Northeast  Level Estimated
Fri 02:55:00 AM 21.2686 111.3165 31° Northeast  Level Estimated
Fri 02:56:00 AM 21.3637 111.3783 31° Northeast  Level Estimated
Fri 02:57:00 AM 21.4588 111.4402 31° Northeast  Level Estimated
Fri 02:58:00 AM 21.5538 111.5022 31° Northeast  Level Estimated
Fri 02:59:00 AM 21.6488 111.5643 31° Northeast  Level Estimated
Fri 03:00:00 AM 21.7439 111.6264 31° Northeast  Level Estimated
Fri 03:01:00 AM 21.8389 111.6887 31° Northeast  Level Estimated
Fri 03:02:00 AM 21.9338 111.7510 31° Northeast  Level Estimated
Fri 03:03:00 AM 22.0287 111.8134 31° Northeast  Level Estimated
Fri 03:04:00 AM 22.1237 111.8759 31° Northeast  Level Estimated
Fri 03:05:00 AM 22.2186 111.9385 31° Northeast  Level Estimated
Fri 03:06:00 AM 22.3134 112.0011 31° Northeast  Level Estimated
Fri 03:07:00 AM 22.4053 112.0619 31° Northeast  Level Estimated
Fri 03:08:00 AM 22.4973 112.1228 31° Northeast  Level Estimated
Fri 03:09:00 AM 22.5891 112.1838 31° Northeast  Level Estimated
Fri 03:10:00 AM 22.6810 112.2449 32° Northeast  Level Estimated
Fri 03:11:00 AM 22.7728 112.3060 32° Northeast  Level Estimated
Fri 03:12:00 AM 22.8646 112.3672 32° Northeast  Level Estimated
Fri 03:13:00 AM 22.9564 112.4285 32° Northeast  Level Estimated
Fri 03:14:00 AM 23.0482 112.4899 32° Northeast  Level Estimated
Fri 03:15:00 AM 23.1399 112.5514 32° Northeast  Level Estimated
Fri 03:16:00 AM 23.2316 112.6129 32° Northeast  Level Estimated
Fri 03:17:00 AM 23.3233 112.6746 32° Northeast  Level Estimated
Fri 03:18:00 AM 23.4150 112.7363 32° Northeast  Level Estimated
Fri 03:19:00 AM 23.5067 112.7981 32° Northeast  Level Estimated
Fri 03:20:00 AM 23.5983 112.8600 32° Northeast  Level Estimated
Fri 03:21:00 AM 23.6899 112.9220 32° Northeast  Level Estimated
Fri 03:22:00 AM 23.7814 112.9840 32° Northeast  Level Estimated
Fri 03:23:00 AM 23.8730 113.0462 32° Northeast  Level Estimated
Fri 03:24:00 AM 23.9645 113.1084 32° Northeast  Level Estimated
Fri 03:25:00 AM 24.0560 113.1708 32° Northeast  Level Estimated
Fri 03:26:00 AM 24.1475 113.2332 32° Northeast  Level Estimated
Fri 03:27:00 AM 24.2389 113.2957 32° Northeast  Level Estimated
Fri 03:28:00 AM 24.3303 113.3583 32° Northeast  Level Estimated
Fri 03:29:00 AM 24.4217 113.4210 32° Northeast  Level Estimated
Fri 03:30:00 AM 24.5131 113.4838 32° Northeast  Level Estimated
Fri 03:31:00 AM 24.6044 113.5466 32° Northeast  Level Estimated
Fri 03:32:00 AM 24.6957 113.6096 32° Northeast  Level Estimated
Fri 03:33:00 AM 24.7870 113.6727 32° Northeast  Level Estimated
Fri 03:34:00 AM 24.8783 113.7358 32° Northeast  Level Estimated
Fri 03:35:00 AM 24.9695 113.7990 32° Northeast  Level Estimated
Fri 03:36:00 AM 25.0607 113.8624 32° Northeast  Level Estimated
Fri 03:37:00 AM 25.1519 113.9258 32° Northeast  Level Estimated
Fri 03:38:00 AM 25.2431 113.9893 32° Northeast  Level Estimated
Fri 03:39:00 AM 25.3342 114.0530 32° Northeast  Level Estimated
Fri 03:40:00 AM 25.4253 114.1167 32° Northeast  Level Estimated
Fri 03:41:00 AM 25.5164 114.1805 32° Northeast  Level Estimated
Fri 03:42:00 AM 25.6074 114.2444 32° Northeast  Level Estimated
Fri 03:43:00 AM 25.6985 114.3084 32° Northeast  Level Estimated
Fri 03:44:00 AM 25.7894 114.3725 32° Northeast  Level Estimated
Fri 03:45:00 AM 25.8804 114.4367 32° Northeast  Level Estimated
Fri 03:46:00 AM 25.9713 114.5010 32° Northeast  Level Estimated
Fri 03:47:00 AM 26.0622 114.5654 32° Northeast  Level Estimated
Fri 03:48:00 AM 26.1531 114.6299 32° Northeast  Level Estimated
Fri 03:49:00 AM 26.2440 114.6945 33° Northeast  Level Estimated
Fri 03:50:00 AM 26.3348 114.7592 33° Northeast  Level Estimated
Fri 03:51:00 AM 26.4256 114.8240 33° Northeast  Level Estimated
Fri 03:52:00 AM 26.5163 114.8889 33° Northeast  Level Estimated
Fri 03:53:00 AM 26.6071 114.9539 33° Northeast  Level Estimated
Fri 03:54:00 AM 26.6978 115.0191 33° Northeast  Level Estimated
Fri 03:55:00 AM 26.7884 115.0843 33° Northeast  Level Estimated
Fri 03:56:00 AM 26.8791 115.1496 33° Northeast  Level Estimated
Fri 03:57:00 AM 26.9697 115.2150 33° Northeast  Level Estimated
Fri 03:58:00 AM 27.0603 115.2806 33° Northeast  Level Estimated
Fri 03:59:00 AM 27.1508 115.3462 33° Northeast  Level Estimated
Fri 04:00:00 AM 27.2413 115.4119 33° Northeast  Level Estimated
Fri 04:01:00 AM 27.3318 115.4778 33° Northeast  Level Estimated
Fri 04:02:00 AM 27.4223 115.5437 33° Northeast  Level Estimated
Fri 04:03:00 AM 27.5127 115.6098 33° Northeast  Level Estimated
Fri 04:04:00 AM 27.6031 115.6760 33° Northeast  Level Estimated
Fri 04:05:00 AM 27.6935 115.7423 33° Northeast  Level Estimated
Fri 04:06:00 AM 27.7838 115.8087 33° Northeast  Level Estimated
Fri 04:07:00 AM 27.8741 115.8752 33° Northeast  Level Estimated
Fri 04:08:00 AM 27.9644 115.9418 33° Northeast  Level Estimated
Fri 04:09:00 AM 28.0546 116.0085 33° Northeast  Level Estimated
Fri 04:10:00 AM 28.1448 116.0754 33° Northeast  Level Estimated
Fri 04:11:00 AM 28.2350 116.1423 33° Northeast  Level Estimated
Fri 04:12:00 AM 28.3251 116.2094 33° Northeast  Level Estimated
Fri 04:13:00 AM 28.4153 116.2766 33° Northeast  Level Estimated
Fri 04:14:00 AM 28.5053 116.3439 33° Northeast  Level Estimated
Fri 04:15:00 AM 28.5954 116.4113 33° Northeast  Level Estimated
Fri 04:16:00 AM 28.6854 116.4788 33° Northeast  Level Estimated
Fri 04:17:00 AM 28.7753 116.5464 33° Northeast  Level Estimated
Fri 04:18:00 AM 28.8653 116.6142 33° Northeast  Level Estimated
Fri 04:19:00 AM 28.9552 116.6821 33° Northeast  Level Estimated
Fri 04:20:00 AM 29.0451 116.7501 33° Northeast  Level Estimated
Fri 04:21:00 AM 29.1349 116.8182 34° Northeast  Level Estimated
Fri 04:22:00 AM 29.2247 116.8864 34° Northeast  Level Estimated
Fri 04:23:00 AM 29.3145 116.9547 34° Northeast  Level Estimated
Fri 04:24:00 AM 29.4042 117.0232 34° Northeast  Level Estimated
Fri 04:25:00 AM 29.4939 117.0918 34° Northeast  Level Estimated
Fri 04:26:00 AM 29.5836 117.1605 34° Northeast  Level Estimated
Fri 04:27:00 AM 29.6732 117.2293 34° Northeast  Level Estimated
Fri 04:28:00 AM 29.7628 117.2983 34° Northeast  Level Estimated
Fri 04:29:00 AM 29.8523 117.3674 34° Northeast  Level Estimated
Fri 04:30:00 AM 29.9419 117.4366 34° Northeast  Level Estimated
Fri 04:31:00 AM 30.0313 117.5059 34° Northeast  Level Estimated
Fri 04:32:00 AM 30.1208 117.5754 34° Northeast  Level Estimated
Fri 04:33:00 AM 30.2102 117.6450 34° Northeast  Level Estimated
Fri 04:34:00 AM 30.2996 117.7147 34° Northeast  Level Estimated
Fri 04:35:00 AM 30.3889 117.7845 34° Northeast  Level Estimated
Fri 04:36:00 AM 30.4782 117.8545 34° Northeast  Level Estimated
Fri 04:37:00 AM 30.5675 117.9246 34° Northeast  Level Estimated
Fri 04:38:00 AM 30.6567 117.9948 34° Northeast  Level Estimated
Fri 04:39:00 AM 30.7459 118.0651 34° Northeast  Level Estimated
Fri 04:40:00 AM 30.8350 118.1356 34° Northeast  Level Estimated
Fri 04:41:00 AM 30.9242 118.2062 34° Northeast  Level Estimated
Fri 04:42:00 AM 31.0132 118.2770 34° Northeast  Level Estimated
Fri 04:43:00 AM 31.1023 118.3478 34° Northeast  Level Estimated
Fri 04:44:00 AM 31.1913 118.4189 34° Northeast  Level Estimated
Fri 04:45:00 AM 31.2802 118.4900 34° Northeast  Level Estimated
Fri 04:46:00 AM 31.3691 118.5613 34° Northeast  Level Estimated
Fri 04:47:00 AM 31.4580 118.6327 34° Northeast  Level Estimated
Fri 04:48:00 AM 31.5468 118.7042 34° Northeast  Level Estimated
Fri 04:49:00 AM 31.6356 118.7759 34° Northeast  Level Estimated
Fri 04:50:00 AM 31.7244 118.8477 35° Northeast  Level Estimated
Fri 04:51:00 AM 31.7421 118.8620 35° Northeast  Level Estimated
Fri 04:52:00 AM 31.7421 118.8620 North  Level Estimated
Fri 04:53:00 AM 31.7421 118.8620 North  Level Estimated
Fri 04:54:00 AM 31.7421 118.8620 North  Level Estimated
Fri 04:55:00 AM 31.7421 118.8620 North  Level Estimated
Fri 04:56:00 AM 31.7421 118.8620 North  Level Estimated
Fri 04:57:00 AM 31.7421 118.8620 North  Level Estimated
Fri 04:58:00 AM 31.7421 118.8620 North  Level Estimated
Fri 04:59:00 AM 31.7421 118.8620 North  Level Estimated
Fri 05:00:00 AM 31.7421 118.8620 North  Level Estimated
Fri 05:01:00 AM 31.7421 118.8620 North  Level Estimated
Fri 05:02:00 AM 31.7421 118.8620 North  Level Estimated
Fri 05:03:00 AM 31.7421 118.8620 North  Level Estimated
Fri 05:04:00 AM 31.7421 118.8620 North  Level Estimated
Fri 05:05:00 AM 31.7421 118.8620 North  Level Estimated
Fri 05:06:00 AM 31.7421 118.8620 North  Level Estimated
Fri 05:07:00 AM 31.7421 118.8620 North  Level Estimated
Fri 05:08:00 AM 31.7421 118.8620 North  Level Estimated
Fri 05:09:00 AM 31.7421 118.8620 North  Level Estimated
Fri 05:10:00 AM 31.7421 118.8620 North  Level Estimated
Fri 05:11:00 AM 31.7421 118.8620 North  Level Estimated
Fri 05:12:00 AM 31.7421 118.8620 North  Level Estimated
Fri 05:13:00 AM 31.7421 118.8620 North  Level Estimated
Fri 05:14:00 AM 31.7421 118.8620 North  Level Estimated
Fri 05:15:00 AM 31.7421 118.8620 North  Level Estimated
Fri 05:16:00 AM 31.7421 118.8620 North  Level Estimated
Fri 05:17:00 AM 31.7421 118.8620 North  Level Estimated
Fri 05:18:00 AM 31.7421 118.8620 North  Level Estimated
Fri 05:19:00 AM 31.7421 118.8620 North  Level Estimated

Login

Don't have an account? Register now (free) for customized features, flight alerts, and more!